sensor_id;sensor_type;location;lat;lon;timestamp;P1;durP1;ratioP1;P2;durP2;ratioP2
43891;SDS011;29555;45.350;5.578;2023-07-24T00:01:54;8.15;;;3.95;;
43891;SDS011;29555;45.350;5.578;2023-07-24T00:04:19;8.48;;;5.47;;
43891;SDS011;29555;45.350;5.578;2023-07-24T00:06:45;7.80;;;3.95;;
43891;SDS011;29555;45.350;5.578;2023-07-24T00:09:10;9.93;;;5.15;;
43891;SDS011;29555;45.350;5.578;2023-07-24T00:11:35;6.90;;;4.32;;
43891;SDS011;29555;45.350;5.578;2023-07-24T00:14:01;14.05;;;4.07;;
43891;SDS011;29555;45.350;5.578;2023-07-24T00:16:26;4.55;;;4.07;;
43891;SDS011;29555;45.350;5.578;2023-07-24T00:18:51;9.88;;;4.18;;
43891;SDS011;29555;45.350;5.578;2023-07-24T00:21:17;6.97;;;4.10;;
43891;SDS011;29555;45.350;5.578;2023-07-24T00:23:42;5.97;;;4.82;;
43891;SDS011;29555;45.350;5.578;2023-07-24T00:26:07;6.30;;;3.83;;
43891;SDS011;29555;45.350;5.578;2023-07-24T00:28:33;8.10;;;4.50;;
43891;SDS011;29555;45.350;5.578;2023-07-24T00:30:58;10.40;;;4.05;;
43891;SDS011;29555;45.350;5.578;2023-07-24T00:33:24;6.80;;;4.15;;
43891;SDS011;29555;45.350;5.578;2023-07-24T00:35:49;9.20;;;4.40;;
43891;SDS011;29555;45.350;5.578;2023-07-24T00:38:14;4.80;;;4.20;;
43891;SDS011;29555;45.350;5.578;2023-07-24T00:40:40;5.22;;;3.78;;
43891;SDS011;29555;45.350;5.578;2023-07-24T00:43:05;3.22;;;3.03;;
43891;SDS011;29555;45.350;5.578;2023-07-24T00:45:30;4.78;;;4.07;;
43891;SDS011;29555;45.350;5.578;2023-07-24T00:47:56;5.70;;;4.50;;
43891;SDS011;29555;45.350;5.578;2023-07-24T00:50:21;7.45;;;4.25;;
43891;SDS011;29555;45.350;5.578;2023-07-24T00:52:48;8.25;;;4.47;;
43891;SDS011;29555;45.350;5.578;2023-07-24T00:55:13;10.07;;;4.28;;
43891;SDS011;29555;45.350;5.578;2023-07-24T00:57:41;7.35;;;3.05;;
43891;SDS011;29555;45.350;5.578;2023-07-24T01:00:07;9.07;;;4.22;;
43891;SDS011;29555;45.350;5.578;2023-07-24T01:02:33;8.40;;;4.07;;
43891;SDS011;29555;45.350;5.578;2023-07-24T01:04:59;13.10;;;3.90;;
43891;SDS011;29555;45.350;5.578;2023-07-24T01:07:24;6.65;;;4.53;;
43891;SDS011;29555;45.350;5.578;2023-07-24T01:09:50;8.40;;;3.55;;
43891;SDS011;29555;45.350;5.578;2023-07-24T01:12:33;7.97;;;4.63;;
43891;SDS011;29555;45.350;5.578;2023-07-24T01:15:12;5.78;;;4.53;;
43891;SDS011;29555;45.350;5.578;2023-07-24T01:17:42;10.70;;;4.50;;
43891;SDS011;29555;45.350;5.578;2023-07-24T01:25:57;8.05;;;3.80;;
43891;SDS011;29555;45.350;5.578;2023-07-24T01:28:24;7.80;;;4.97;;
43891;SDS011;29555;45.350;5.578;2023-07-24T01:30:50;8.60;;;4.57;;
43891;SDS011;29555;45.350;5.578;2023-07-24T01:33:16;4.97;;;3.72;;
43891;SDS011;29555;45.350;5.578;2023-07-24T01:35:42;9.50;;;4.88;;
43891;SDS011;29555;45.350;5.578;2023-07-24T01:38:11;6.13;;;4.47;;
43891;SDS011;29555;45.350;5.578;2023-07-24T01:40:39;11.48;;;4.38;;
43891;SDS011;29555;45.350;5.578;2023-07-24T01:43:05;5.55;;;3.63;;
43891;SDS011;29555;45.350;5.578;2023-07-24T01:45:30;5.65;;;4.15;;
43891;SDS011;29555;45.350;5.578;2023-07-24T01:47:56;15.93;;;4.63;;
43891;SDS011;29555;45.350;5.578;2023-07-24T01:50:22;6.47;;;3.90;;
43891;SDS011;29555;45.350;5.578;2023-07-24T01:52:47;7.03;;;3.70;;
43891;SDS011;29555;45.350;5.578;2023-07-24T01:55:13;6.22;;;4.47;;
43891;SDS011;29555;45.350;5.578;2023-07-24T01:57:38;6.63;;;4.50;;
43891;SDS011;29555;45.350;5.578;2023-07-24T02:00:04;5.55;;;4.63;;
43891;SDS011;29555;45.350;5.578;2023-07-24T02:02:31;9.20;;;4.80;;
43891;SDS011;29555;45.350;5.578;2023-07-24T02:04:56;7.45;;;5.20;;
43891;SDS011;29555;45.350;5.578;2023-07-24T02:07:21;6.10;;;4.18;;
43891;SDS011;29555;45.350;5.578;2023-07-24T02:09:47;4.07;;;3.67;;
43891;SDS011;29555;45.350;5.578;2023-07-24T02:12:12;6.53;;;4.72;;
43891;SDS011;29555;45.350;5.578;2023-07-24T02:14:37;7.00;;;5.40;;
43891;SDS011;29555;45.350;5.578;2023-07-24T02:17:03;7.53;;;5.20;;
43891;SDS011;29555;45.350;5.578;2023-07-24T02:19:28;6.57;;;4.78;;
43891;SDS011;29555;45.350;5.578;2023-07-24T02:21:54;7.45;;;4.38;;
43891;SDS011;29555;45.350;5.578;2023-07-24T02:24:19;6.10;;;4.93;;
43891;SDS011;29555;45.350;5.578;2023-07-24T02:26:44;6.85;;;4.85;;
43891;SDS011;29555;45.350;5.578;2023-07-24T02:29:10;4.93;;;4.43;;
43891;SDS011;29555;45.350;5.578;2023-07-24T02:31:35;9.02;;;6.35;;
43891;SDS011;29555;45.350;5.578;2023-07-24T02:34:00;6.80;;;5.18;;
43891;SDS011;29555;45.350;5.578;2023-07-24T02:36:26;8.98;;;4.68;;
43891;SDS011;29555;45.350;5.578;2023-07-24T02:38:51;5.28;;;4.78;;
43891;SDS011;29555;45.350;5.578;2023-07-24T02:41:16;9.57;;;4.35;;
43891;SDS011;29555;45.350;5.578;2023-07-24T02:43:42;5.05;;;4.65;;
43891;SDS011;29555;45.350;5.578;2023-07-24T02:46:07;9.38;;;5.13;;
43891;SDS011;29555;45.350;5.578;2023-07-24T02:48:32;6.82;;;4.97;;
43891;SDS011;29555;45.350;5.578;2023-07-24T02:50:58;9.90;;;5.07;;
43891;SDS011;29555;45.350;5.578;2023-07-24T02:53:23;6.63;;;4.57;;
43891;SDS011;29555;45.350;5.578;2023-07-24T02:55:49;14.15;;;6.53;;
43891;SDS011;29555;45.350;5.578;2023-07-24T02:58:15;6.10;;;4.65;;
43891;SDS011;29555;45.350;5.578;2023-07-24T03:00:40;7.07;;;5.30;;
43891;SDS011;29555;45.350;5.578;2023-07-24T03:03:06;9.82;;;5.38;;
43891;SDS011;29555;45.350;5.578;2023-07-24T03:05:33;8.75;;;5.05;;
43891;SDS011;29555;45.350;5.578;2023-07-24T03:07:59;11.20;;;5.20;;
43891;SDS011;29555;45.350;5.578;2023-07-24T03:10:24;6.00;;;4.10;;
43891;SDS011;29555;45.350;5.578;2023-07-24T03:12:50;4.85;;;4.28;;
43891;SDS011;29555;45.350;5.578;2023-07-24T03:15:15;10.88;;;4.88;;
43891;SDS011;29555;45.350;5.578;2023-07-24T03:17:40;5.10;;;4.15;;
43891;SDS011;29555;45.350;5.578;2023-07-24T03:20:24;4.93;;;4.38;;
43891;SDS011;29555;45.350;5.578;2023-07-24T03:22:49;9.95;;;5.68;;
43891;SDS011;29555;45.350;5.578;2023-07-24T03:25:14;8.93;;;5.80;;
43891;SDS011;29555;45.350;5.578;2023-07-24T03:27:40;8.57;;;4.35;;
43891;SDS011;29555;45.350;5.578;2023-07-24T03:30:05;5.75;;;4.47;;
43891;SDS011;29555;45.350;5.578;2023-07-24T03:32:31;6.93;;;5.07;;
43891;SDS011;29555;45.350;5.578;2023-07-24T03:34:56;8.90;;;5.15;;
43891;SDS011;29555;45.350;5.578;2023-07-24T03:37:22;8.90;;;5.38;;
43891;SDS011;29555;45.350;5.578;2023-07-24T03:39:47;7.90;;;4.35;;
43891;SDS011;29555;45.350;5.578;2023-07-24T03:42:29;12.65;;;5.05;;
43891;SDS011;29555;45.350;5.578;2023-07-24T03:44:56;6.88;;;4.95;;
43891;SDS011;29555;45.350;5.578;2023-07-24T03:47:22;11.60;;;5.43;;
43891;SDS011;29555;45.350;5.578;2023-07-24T03:49:49;9.80;;;5.32;;
43891;SDS011;29555;45.350;5.578;2023-07-24T03:52:14;7.28;;;5.25;;
43891;SDS011;29555;45.350;5.578;2023-07-24T03:54:40;6.03;;;5.43;;
43891;SDS011;29555;45.350;5.578;2023-07-24T03:57:06;6.05;;;4.72;;
43891;SDS011;29555;45.350;5.578;2023-07-24T03:59:31;8.93;;;6.05;;
43891;SDS011;29555;45.350;5.578;2023-07-24T04:01:57;6.20;;;4.93;;
43891;SDS011;29555;45.350;5.578;2023-07-24T04:04:23;7.80;;;5.32;;
43891;SDS011;29555;45.350;5.578;2023-07-24T04:06:48;6.60;;;4.90;;
43891;SDS011;29555;45.350;5.578;2023-07-24T04:09:14;8.18;;;5.63;;
43891;SDS011;29555;45.350;5.578;2023-07-24T04:11:43;7.55;;;4.95;;
43891;SDS011;29555;45.350;5.578;2023-07-24T04:14:09;10.80;;;5.65;;
43891;SDS011;29555;45.350;5.578;2023-07-24T04:16:34;5.43;;;4.20;;
43891;SDS011;29555;45.350;5.578;2023-07-24T04:19:00;7.55;;;5.60;;
43891;SDS011;29555;45.350;5.578;2023-07-24T04:21:25;7.97;;;4.80;;
43891;SDS011;29555;45.350;5.578;2023-07-24T04:23:51;7.75;;;4.85;;
43891;SDS011;29555;45.350;5.578;2023-07-24T04:26:16;14.27;;;5.85;;
43891;SDS011;29555;45.350;5.578;2023-07-24T04:28:41;13.82;;;6.53;;
43891;SDS011;29555;45.350;5.578;2023-07-24T04:31:07;6.88;;;5.03;;
43891;SDS011;29555;45.350;5.578;2023-07-24T04:33:32;7.90;;;5.35;;
43891;SDS011;29555;45.350;5.578;2023-07-24T04:35:57;8.18;;;5.13;;
43891;SDS011;29555;45.350;5.578;2023-07-24T04:38:23;7.03;;;4.88;;
43891;SDS011;29555;45.350;5.578;2023-07-24T04:40:48;6.93;;;6.18;;
43891;SDS011;29555;45.350;5.578;2023-07-24T04:43:14;9.07;;;5.50;;
43891;SDS011;29555;45.350;5.578;2023-07-24T04:45:39;13.05;;;5.82;;
43891;SDS011;29555;45.350;5.578;2023-07-24T04:48:04;12.27;;;6.93;;
43891;SDS011;29555;45.350;5.578;2023-07-24T04:50:30;12.95;;;6.57;;
43891;SDS011;29555;45.350;5.578;2023-07-24T04:52:56;7.70;;;6.35;;
43891;SDS011;29555;45.350;5.578;2023-07-24T04:55:21;6.20;;;4.78;;
43891;SDS011;29555;45.350;5.578;2023-07-24T04:57:47;5.78;;;5.18;;
43891;SDS011;29555;45.350;5.578;2023-07-24T05:00:13;9.25;;;6.20;;
43891;SDS011;29555;45.350;5.578;2023-07-24T05:02:39;11.40;;;6.68;;
43891;SDS011;29555;45.350;5.578;2023-07-24T05:05:04;14.35;;;5.72;;
43891;SDS011;29555;45.350;5.578;2023-07-24T05:07:30;12.15;;;6.22;;
43891;SDS011;29555;45.350;5.578;2023-07-24T05:09:55;9.05;;;6.80;;
43891;SDS011;29555;45.350;5.578;2023-07-24T05:12:21;12.85;;;8.00;;
43891;SDS011;29555;45.350;5.578;2023-07-24T05:14:46;7.97;;;5.72;;
43891;SDS011;29555;45.350;5.578;2023-07-24T05:17:12;12.15;;;6.38;;
43891;SDS011;29555;45.350;5.578;2023-07-24T05:19:37;10.20;;;5.28;;
43891;SDS011;29555;45.350;5.578;2023-07-24T05:22:02;9.73;;;7.03;;
43891;SDS011;29555;45.350;5.578;2023-07-24T05:24:28;11.30;;;6.65;;
43891;SDS011;29555;45.350;5.578;2023-07-24T05:26:53;10.65;;;6.78;;
43891;SDS011;29555;45.350;5.578;2023-07-24T05:29:19;15.13;;;7.10;;
43891;SDS011;29555;45.350;5.578;2023-07-24T05:31:44;5.90;;;5.40;;
43891;SDS011;29555;45.350;5.578;2023-07-24T05:34:09;9.23;;;6.82;;
43891;SDS011;29555;45.350;5.578;2023-07-24T05:36:35;11.20;;;6.85;;
43891;SDS011;29555;45.350;5.578;2023-07-24T05:39:00;7.72;;;5.68;;
43891;SDS011;29555;45.350;5.578;2023-07-24T05:41:25;13.48;;;7.25;;
43891;SDS011;29555;45.350;5.578;2023-07-24T05:43:51;10.10;;;6.57;;
43891;SDS011;29555;45.350;5.578;2023-07-24T05:46:16;11.18;;;6.95;;
43891;SDS011;29555;45.350;5.578;2023-07-24T05:48:42;10.48;;;6.13;;
43891;SDS011;29555;45.350;5.578;2023-07-24T05:51:07;14.23;;;5.93;;
43891;SDS011;29555;45.350;5.578;2023-07-24T05:53:32;10.40;;;6.80;;
43891;SDS011;29555;45.350;5.578;2023-07-24T05:55:58;12.00;;;5.90;;
43891;SDS011;29555;45.350;5.578;2023-07-24T05:58:24;11.15;;;5.82;;
43891;SDS011;29555;45.350;5.578;2023-07-24T06:00:50;10.00;;;6.28;;
43891;SDS011;29555;45.350;5.578;2023-07-24T06:03:15;15.00;;;6.68;;
43891;SDS011;29555;45.350;5.578;2023-07-24T06:05:41;12.18;;;6.28;;
43891;SDS011;29555;45.350;5.578;2023-07-24T06:08:06;10.40;;;5.53;;
43891;SDS011;29555;45.350;5.578;2023-07-24T06:10:33;14.15;;;5.80;;
43891;SDS011;29555;45.350;5.578;2023-07-24T06:12:59;8.43;;;6.13;;
43891;SDS011;29555;45.350;5.578;2023-07-24T06:15:24;8.65;;;5.00;;
43891;SDS011;29555;45.350;5.578;2023-07-24T06:17:50;6.75;;;5.55;;
43891;SDS011;29555;45.350;5.578;2023-07-24T06:20:15;15.43;;;6.72;;
43891;SDS011;29555;45.350;5.578;2023-07-24T06:22:40;14.82;;;5.63;;
43891;SDS011;29555;45.350;5.578;2023-07-24T06:25:09;16.48;;;6.53;;
43891;SDS011;29555;45.350;5.578;2023-07-24T06:27:34;14.43;;;6.53;;
43891;SDS011;29555;45.350;5.578;2023-07-24T06:29:59;10.52;;;7.40;;
43891;SDS011;29555;45.350;5.578;2023-07-24T06:32:25;10.75;;;5.63;;
43891;SDS011;29555;45.350;5.578;2023-07-24T06:34:50;16.90;;;6.50;;
43891;SDS011;29555;45.350;5.578;2023-07-24T06:37:16;7.25;;;5.78;;
43891;SDS011;29555;45.350;5.578;2023-07-24T06:39:41;12.27;;;6.68;;
43891;SDS011;29555;45.350;5.578;2023-07-24T06:42:07;10.25;;;6.50;;
43891;SDS011;29555;45.350;5.578;2023-07-24T06:44:32;9.43;;;6.07;;
43891;SDS011;29555;45.350;5.578;2023-07-24T06:46:57;12.77;;;7.20;;
43891;SDS011;29555;45.350;5.578;2023-07-24T06:49:23;8.15;;;4.97;;
43891;SDS011;29555;45.350;5.578;2023-07-24T06:51:48;16.45;;;6.45;;
43891;SDS011;29555;45.350;5.578;2023-07-24T06:54:13;9.30;;;6.45;;
43891;SDS011;29555;45.350;5.578;2023-07-24T06:56:39;11.82;;;6.55;;
43891;SDS011;29555;45.350;5.578;2023-07-24T06:59:04;6.82;;;5.22;;
43891;SDS011;29555;45.350;5.578;2023-07-24T07:01:29;8.32;;;5.68;;
43891;SDS011;29555;45.350;5.578;2023-07-24T07:03:55;8.82;;;6.30;;
43891;SDS011;29555;45.350;5.578;2023-07-24T07:06:20;9.90;;;5.60;;
43891;SDS011;29555;45.350;5.578;2023-07-24T07:08:46;7.35;;;6.10;;
43891;SDS011;29555;45.350;5.578;2023-07-24T07:11:11;11.88;;;5.93;;
43891;SDS011;29555;45.350;5.578;2023-07-24T07:13:36;11.80;;;5.82;;
43891;SDS011;29555;45.350;5.578;2023-07-24T07:16:02;12.65;;;5.63;;
43891;SDS011;29555;45.350;5.578;2023-07-24T07:18:27;15.18;;;5.28;;
43891;SDS011;29555;45.350;5.578;2023-07-24T07:20:53;11.30;;;5.68;;
43891;SDS011;29555;45.350;5.578;2023-07-24T07:23:19;7.30;;;5.65;;
43891;SDS011;29555;45.350;5.578;2023-07-24T07:25:45;9.52;;;6.47;;
43891;SDS011;29555;45.350;5.578;2023-07-24T07:28:14;10.77;;;7.10;;
43891;SDS011;29555;45.350;5.578;2023-07-24T07:30:40;8.77;;;5.93;;
43891;SDS011;29555;45.350;5.578;2023-07-24T07:33:06;8.10;;;6.07;;
43891;SDS011;29555;45.350;5.578;2023-07-24T07:35:35;9.95;;;6.65;;
43891;SDS011;29555;45.350;5.578;2023-07-24T07:38:01;9.65;;;6.20;;
43891;SDS011;29555;45.350;5.578;2023-07-24T07:40:27;12.93;;;6.75;;
43891;SDS011;29555;45.350;5.578;2023-07-24T07:42:53;12.10;;;6.47;;
43891;SDS011;29555;45.350;5.578;2023-07-24T07:45:19;13.73;;;6.40;;
43891;SDS011;29555;45.350;5.578;2023-07-24T07:47:45;9.48;;;6.90;;
43891;SDS011;29555;45.350;5.578;2023-07-24T07:50:10;6.65;;;5.25;;
43891;SDS011;29555;45.350;5.578;2023-07-24T07:52:36;11.68;;;6.00;;
43891;SDS011;29555;45.350;5.578;2023-07-24T07:55:01;7.88;;;4.70;;
43891;SDS011;29555;45.350;5.578;2023-07-24T07:57:27;9.02;;;6.25;;
43891;SDS011;29555;45.350;5.578;2023-07-24T07:59:52;11.20;;;5.57;;
43891;SDS011;29555;45.350;5.578;2023-07-24T08:02:17;7.82;;;5.70;;
43891;SDS011;29555;45.350;5.578;2023-07-24T08:04:43;11.80;;;5.50;;
43891;SDS011;29555;45.350;5.578;2023-07-24T08:07:08;9.23;;;6.32;;
43891;SDS011;29555;45.350;5.578;2023-07-24T08:09:34;10.45;;;4.65;;
43891;SDS011;29555;45.350;5.578;2023-07-24T08:12:00;17.02;;;6.05;;
43891;SDS011;29555;45.350;5.578;2023-07-24T08:14:26;9.80;;;5.97;;
43891;SDS011;29555;45.350;5.578;2023-07-24T08:16:51;7.70;;;5.28;;
43891;SDS011;29555;45.350;5.578;2023-07-24T08:19:18;8.18;;;5.10;;
43891;SDS011;29555;45.350;5.578;2023-07-24T08:21:43;12.88;;;5.70;;
43891;SDS011;29555;45.350;5.578;2023-07-24T08:24:09;8.20;;;4.55;;
43891;SDS011;29555;45.350;5.578;2023-07-24T08:26:35;10.70;;;5.75;;
43891;SDS011;29555;45.350;5.578;2023-07-24T08:29:00;10.75;;;5.35;;
43891;SDS011;29555;45.350;5.578;2023-07-24T08:31:25;11.30;;;6.22;;
43891;SDS011;29555;45.350;5.578;2023-07-24T08:33:51;9.60;;;5.03;;
43891;SDS011;29555;45.350;5.578;2023-07-24T08:36:16;11.52;;;6.22;;
43891;SDS011;29555;45.350;5.578;2023-07-24T08:38:41;6.50;;;5.07;;
43891;SDS011;29555;45.350;5.578;2023-07-24T08:41:08;13.25;;;6.28;;
43891;SDS011;29555;45.350;5.578;2023-07-24T08:43:36;9.60;;;5.90;;
43891;SDS011;29555;45.350;5.578;2023-07-24T08:46:02;8.38;;;5.55;;
43891;SDS011;29555;45.350;5.578;2023-07-24T08:48:38;8.90;;;6.47;;
43891;SDS011;29555;45.350;5.578;2023-07-24T08:51:05;7.72;;;5.40;;
43891;SDS011;29555;45.350;5.578;2023-07-24T08:53:33;15.73;;;6.60;;
43891;SDS011;29555;45.350;5.578;2023-07-24T08:56:00;11.15;;;5.28;;
43891;SDS011;29555;45.350;5.578;2023-07-24T08:58:27;6.72;;;5.25;;
43891;SDS011;29555;45.350;5.578;2023-07-24T09:00:53;10.98;;;6.78;;
43891;SDS011;29555;45.350;5.578;2023-07-24T09:03:18;10.10;;;6.18;;
43891;SDS011;29555;45.350;5.578;2023-07-24T09:05:44;7.80;;;5.88;;
43891;SDS011;29555;45.350;5.578;2023-07-24T09:08:10;8.73;;;5.97;;
43891;SDS011;29555;45.350;5.578;2023-07-24T09:10:36;14.80;;;5.57;;
43891;SDS011;29555;45.350;5.578;2023-07-24T09:13:01;8.25;;;6.40;;
43891;SDS011;29555;45.350;5.578;2023-07-24T09:15:29;9.95;;;6.32;;
43891;SDS011;29555;45.350;5.578;2023-07-24T09:18:04;13.30;;;6.75;;
43891;SDS011;29555;45.350;5.578;2023-07-24T09:20:37;9.77;;;4.93;;
43891;SDS011;29555;45.350;5.578;2023-07-24T09:23:06;15.07;;;5.38;;
43891;SDS011;29555;45.350;5.578;2023-07-24T09:25:33;9.20;;;6.47;;
43891;SDS011;29555;45.350;5.578;2023-07-24T09:27:59;9.73;;;6.55;;
43891;SDS011;29555;45.350;5.578;2023-07-24T09:30:25;9.90;;;7.13;;
43891;SDS011;29555;45.350;5.578;2023-07-24T09:32:54;11.35;;;5.82;;
43891;SDS011;29555;45.350;5.578;2023-07-24T09:35:20;12.73;;;7.97;;
43891;SDS011;29555;45.350;5.578;2023-07-24T09:37:51;11.25;;;7.45;;
43891;SDS011;29555;45.350;5.578;2023-07-24T09:40:16;14.02;;;6.90;;
43891;SDS011;29555;45.350;5.578;2023-07-24T09:42:41;10.27;;;6.90;;
43891;SDS011;29555;45.350;5.578;2023-07-24T09:45:07;10.63;;;6.43;;
43891;SDS011;29555;45.350;5.578;2023-07-24T09:47:33;9.23;;;6.25;;
43891;SDS011;29555;45.350;5.578;2023-07-24T09:50:00;7.60;;;6.25;;
43891;SDS011;29555;45.350;5.578;2023-07-24T09:52:29;13.05;;;5.85;;
43891;SDS011;29555;45.350;5.578;2023-07-24T09:57:30;11.07;;;6.80;;
43891;SDS011;29555;45.350;5.578;2023-07-24T09:59:56;10.60;;;5.65;;
43891;SDS011;29555;45.350;5.578;2023-07-24T10:02:22;15.68;;;7.30;;
43891;SDS011;29555;45.350;5.578;2023-07-24T10:04:47;10.73;;;7.45;;
43891;SDS011;29555;45.350;5.578;2023-07-24T10:07:14;6.55;;;5.57;;
43891;SDS011;29555;45.350;5.578;2023-07-24T10:09:41;9.35;;;6.38;;
43891;SDS011;29555;45.350;5.578;2023-07-24T10:12:08;10.90;;;5.97;;
43891;SDS011;29555;45.350;5.578;2023-07-24T10:14:34;12.10;;;6.00;;
43891;SDS011;29555;45.350;5.578;2023-07-24T10:17:01;15.85;;;5.15;;
43891;SDS011;29555;45.350;5.578;2023-07-24T10:19:35;14.45;;;6.03;;
43891;SDS011;29555;45.350;5.578;2023-07-24T10:22:02;8.68;;;5.13;;
43891;SDS011;29555;45.350;5.578;2023-07-24T10:24:31;6.57;;;5.55;;
43891;SDS011;29555;45.350;5.578;2023-07-24T10:26:58;11.00;;;5.72;;
43891;SDS011;29555;45.350;5.578;2023-07-24T10:29:24;10.80;;;5.20;;
43891;SDS011;29555;45.350;5.578;2023-07-24T10:31:53;7.93;;;5.53;;
43891;SDS011;29555;45.350;5.578;2023-07-24T10:34:19;5.97;;;5.40;;
43891;SDS011;29555;45.350;5.578;2023-07-24T10:36:45;6.50;;;4.43;;
43891;SDS011;29555;45.350;5.578;2023-07-24T10:39:14;5.93;;;4.95;;
43891;SDS011;29555;45.350;5.578;2023-07-24T10:41:41;11.30;;;5.70;;
43891;SDS011;29555;45.350;5.578;2023-07-24T10:44:06;8.20;;;4.20;;
43891;SDS011;29555;45.350;5.578;2023-07-24T10:46:35;6.10;;;4.38;;
43891;SDS011;29555;45.350;5.578;2023-07-24T10:49:02;4.78;;;4.38;;
43891;SDS011;29555;45.350;5.578;2023-07-24T10:51:29;6.75;;;4.63;;
43891;SDS011;29555;45.350;5.578;2023-07-24T10:53:54;7.82;;;5.03;;
43891;SDS011;29555;45.350;5.578;2023-07-24T10:56:20;8.15;;;4.32;;
43891;SDS011;29555;45.350;5.578;2023-07-24T10:58:45;5.53;;;5.03;;
43891;SDS011;29555;45.350;5.578;2023-07-24T11:01:11;7.43;;;5.53;;
43891;SDS011;29555;45.350;5.578;2023-07-24T11:03:37;5.50;;;5.00;;
43891;SDS011;29555;45.350;5.578;2023-07-24T11:06:04;12.10;;;5.47;;
43891;SDS011;29555;45.350;5.578;2023-07-24T11:08:30;7.70;;;5.18;;
43891;SDS011;29555;45.350;5.578;2023-07-24T11:10:57;10.07;;;4.47;;
43891;SDS011;29555;45.350;5.578;2023-07-24T11:13:24;9.75;;;4.95;;
43891;SDS011;29555;45.350;5.578;2023-07-24T11:15:51;7.30;;;5.38;;
43891;SDS011;29555;45.350;5.578;2023-07-24T11:18:18;8.85;;;4.22;;
43891;SDS011;29555;45.350;5.578;2023-07-24T11:20:46;12.02;;;6.63;;
43891;SDS011;29555;45.350;5.578;2023-07-24T11:23:14;8.95;;;5.20;;
43891;SDS011;29555;45.350;5.578;2023-07-24T11:25:40;9.95;;;5.30;;
43891;SDS011;29555;45.350;5.578;2023-07-24T11:28:06;7.60;;;5.18;;
43891;SDS011;29555;45.350;5.578;2023-07-24T11:30:32;5.47;;;4.90;;
43891;SDS011;29555;45.350;5.578;2023-07-24T11:33:02;6.40;;;4.57;;
43891;SDS011;29555;45.350;5.578;2023-07-24T11:35:29;7.15;;;4.30;;
43891;SDS011;29555;45.350;5.578;2023-07-24T11:37:54;5.40;;;4.90;;
43891;SDS011;29555;45.350;5.578;2023-07-24T11:40:20;11.02;;;5.35;;
43891;SDS011;29555;45.350;5.578;2023-07-24T11:42:46;8.70;;;5.72;;
43891;SDS011;29555;45.350;5.578;2023-07-24T11:45:13;10.35;;;5.80;;
43891;SDS011;29555;45.350;5.578;2023-07-24T11:47:46;7.68;;;5.05;;
43891;SDS011;29555;45.350;5.578;2023-07-24T11:50:13;10.30;;;5.78;;
43891;SDS011;29555;45.350;5.578;2023-07-24T11:52:46;8.82;;;5.70;;
43891;SDS011;29555;45.350;5.578;2023-07-24T11:55:14;6.32;;;4.90;;
43891;SDS011;29555;45.350;5.578;2023-07-24T11:57:40;6.90;;;5.70;;
43891;SDS011;29555;45.350;5.578;2023-07-24T12:00:16;13.57;;;5.82;;
43891;SDS011;29555;45.350;5.578;2023-07-24T12:02:43;7.30;;;5.50;;
43891;SDS011;29555;45.350;5.578;2023-07-24T12:05:09;9.98;;;6.32;;
43891;SDS011;29555;45.350;5.578;2023-07-24T12:07:35;8.52;;;5.00;;
43891;SDS011;29555;45.350;5.578;2023-07-24T12:10:02;7.13;;;6.18;;
43891;SDS011;29555;45.350;5.578;2023-07-24T12:15:10;5.37;;;4.87;;
43891;SDS011;29555;45.350;5.578;2023-07-24T12:17:36;12.05;;;5.00;;
43891;SDS011;29555;45.350;5.578;2023-07-24T12:20:03;5.93;;;4.68;;
43891;SDS011;29555;45.350;5.578;2023-07-24T12:22:30;5.53;;;4.68;;
43891;SDS011;29555;45.350;5.578;2023-07-24T12:24:56;7.13;;;5.68;;
43891;SDS011;29555;45.350;5.578;2023-07-24T12:27:21;7.50;;;4.75;;
43891;SDS011;29555;45.350;5.578;2023-07-24T12:29:47;19.88;;;5.68;;
43891;SDS011;29555;45.350;5.578;2023-07-24T12:32:12;9.05;;;5.80;;
43891;SDS011;29555;45.350;5.578;2023-07-24T12:34:38;6.03;;;4.82;;
43891;SDS011;29555;45.350;5.578;2023-07-24T12:37:03;5.97;;;5.47;;
43891;SDS011;29555;45.350;5.578;2023-07-24T12:39:29;5.80;;;5.25;;
43891;SDS011;29555;45.350;5.578;2023-07-24T12:41:54;7.60;;;5.03;;
43891;SDS011;29555;45.350;5.578;2023-07-24T12:44:19;9.60;;;4.72;;
43891;SDS011;29555;45.350;5.578;2023-07-24T12:46:45;5.13;;;4.70;;
43891;SDS011;29555;45.350;5.578;2023-07-24T12:49:10;17.20;;;5.13;;
43891;SDS011;29555;45.350;5.578;2023-07-24T12:51:35;13.55;;;4.95;;
43891;SDS011;29555;45.350;5.578;2023-07-24T12:54:01;8.18;;;5.47;;
43891;SDS011;29555;45.350;5.578;2023-07-24T12:56:27;5.28;;;4.22;;
43891;SDS011;29555;45.350;5.578;2023-07-24T12:58:52;13.23;;;5.90;;
43891;SDS011;29555;45.350;5.578;2023-07-24T13:01:17;9.05;;;4.63;;
43891;SDS011;29555;45.350;5.578;2023-07-24T13:03:43;16.15;;;6.53;;
43891;SDS011;29555;45.350;5.578;2023-07-24T13:06:08;5.77;;;4.80;;
43891;SDS011;29555;45.350;5.578;2023-07-24T13:08:33;7.90;;;4.80;;
43891;SDS011;29555;45.350;5.578;2023-07-24T13:10:59;5.27;;;4.77;;
43891;SDS011;29555;45.350;5.578;2023-07-24T13:13:24;7.43;;;5.40;;
43891;SDS011;29555;45.350;5.578;2023-07-24T13:15:49;5.00;;;3.75;;
43891;SDS011;29555;45.350;5.578;2023-07-24T13:18:16;8.52;;;4.05;;
43891;SDS011;29555;45.350;5.578;2023-07-24T13:20:43;7.55;;;5.07;;
43891;SDS011;29555;45.350;5.578;2023-07-24T13:23:08;8.00;;;4.70;;
43891;SDS011;29555;45.350;5.578;2023-07-24T13:25:34;8.07;;;4.97;;
43891;SDS011;29555;45.350;5.578;2023-07-24T13:27:59;6.30;;;4.95;;
43891;SDS011;29555;45.350;5.578;2023-07-24T13:30:25;7.13;;;4.72;;
43891;SDS011;29555;45.350;5.578;2023-07-24T13:32:50;8.37;;;4.77;;
43891;SDS011;29555;45.350;5.578;2023-07-24T13:35:15;10.53;;;4.67;;
43891;SDS011;29555;45.350;5.578;2023-07-24T13:37:41;6.03;;;4.97;;
43891;SDS011;29555;45.350;5.578;2023-07-24T13:40:06;6.22;;;4.03;;
43891;SDS011;29555;45.350;5.578;2023-07-24T13:42:32;4.53;;;4.00;;
43891;SDS011;29555;45.350;5.578;2023-07-24T13:44:58;6.10;;;5.22;;
43891;SDS011;29555;45.350;5.578;2023-07-24T13:47:23;5.07;;;3.78;;
43891;SDS011;29555;45.350;5.578;2023-07-24T13:49:48;7.15;;;3.63;;
43891;SDS011;29555;45.350;5.578;2023-07-24T13:52:14;4.95;;;4.35;;
43891;SDS011;29555;45.350;5.578;2023-07-24T13:54:39;5.00;;;3.83;;
43891;SDS011;29555;45.350;5.578;2023-07-24T13:57:04;7.40;;;5.93;;
43891;SDS011;29555;45.350;5.578;2023-07-24T13:59:32;6.28;;;5.22;;
43891;SDS011;29555;45.350;5.578;2023-07-24T14:01:57;9.73;;;4.55;;
43891;SDS011;29555;45.350;5.578;2023-07-24T14:04:23;4.47;;;4.07;;
43891;SDS011;29555;45.350;5.578;2023-07-24T14:06:48;4.30;;;3.90;;
43891;SDS011;29555;45.350;5.578;2023-07-24T14:09:13;5.37;;;4.07;;
43891;SDS011;29555;45.350;5.578;2023-07-24T14:11:39;5.05;;;4.47;;
43891;SDS011;29555;45.350;5.578;2023-07-24T14:14:04;8.07;;;4.67;;
43891;SDS011;29555;45.350;5.578;2023-07-24T14:16:29;6.18;;;3.97;;
43891;SDS011;29555;45.350;5.578;2023-07-24T14:18:55;4.75;;;4.32;;
43891;SDS011;29555;45.350;5.578;2023-07-24T14:21:20;13.37;;;4.83;;
43891;SDS011;29555;45.350;5.578;2023-07-24T14:23:46;6.22;;;4.88;;
43891;SDS011;29555;45.350;5.578;2023-07-24T14:26:11;10.63;;;3.57;;
43891;SDS011;29555;45.350;5.578;2023-07-24T14:28:36;8.03;;;4.50;;
43891;SDS011;29555;45.350;5.578;2023-07-24T14:31:02;5.47;;;3.63;;
43891;SDS011;29555;45.350;5.578;2023-07-24T14:33:27;6.65;;;4.00;;
43891;SDS011;29555;45.350;5.578;2023-07-24T14:35:52;6.65;;;4.50;;
43891;SDS011;29555;45.350;5.578;2023-07-24T14:38:19;9.27;;;4.38;;
43891;SDS011;29555;45.350;5.578;2023-07-24T14:40:45;7.20;;;4.93;;
43891;SDS011;29555;45.350;5.578;2023-07-24T14:43:10;11.70;;;4.90;;
43891;SDS011;29555;45.350;5.578;2023-07-24T14:45:35;5.32;;;4.70;;
43891;SDS011;29555;45.350;5.578;2023-07-24T14:48:01;4.47;;;3.83;;